Flight Track Log - Related Links

Times and Time Zones

All times are in EDT time to prevent confusion due to time zone crossing. See the RPA3196 flight status page for this flight to view local times or setup timezone preferences in your user account.

Time Position Orientation Groundspeed Altitude Reporting Facility
EDT Latitude Longitude Course Direction KTS MPH feet Rate Location/Type
Thu 09:46:59 AM 39.8833 -75.2167 37° Northeast 150 173 800  Level Philadelphia TRACON
Thu 09:47:53 AM 39.8667 -75.1667 113° Southeast 210 242 2,200 2,533 Climbing Philadelphia TRACON
Thu 09:49:00 AM 39.8167 -74.8868 90° East  Level FlightAware Approximate
Thu 09:50:00 AM 39.7972 -74.7692 105° East  Level FlightAware Approximate
Thu 09:50:18 AM 39.8167 -74.9464 106° East 274 315 9,200  Level New York Center
Thu 09:51:00 AM 39.8134 -74.6699 37° Northeast  Level FlightAware Approximate
Thu 09:51:17 AM 39.8056 -74.8431 98° East 304 350 11,200  Level New York Center
Thu 09:52:00 AM 39.8871 -74.5963 37° Northeast  Level FlightAware Approximate
Thu 09:52:18 AM 39.8036 -74.7186 91° East 318 366 13,400  Level New York Center
Thu 09:53:16 AM 39.8900 -74.6261 39° Northeast 307 353 16,500 2,650 Climbing New York Center
Thu 09:54:18 AM 39.9697 -74.5467 37° Northeast 327 376 18,700 2,098 Climbing New York Center
Thu 09:55:19 AM 40.0536 -74.4644 37° Northeast 340 391 20,800 1,966 Climbing New York Center
Thu 09:56:17 AM 40.1553 -74.4156 20° North 369 425 22,600 1,765 Climbing New York Center
Thu 09:57:18 AM 40.2647 -74.3831 13° North 389 448 24,300 1,850 Climbing New York Center
Thu 09:58:17 AM 40.3739 -74.3508 13° North 389 448 26,300 1,750 Climbing New York Center
Thu 09:59:18 AM 40.4875 -74.3211 11° North 394 453 27,800 1,169 Climbing New York Center
Thu 10:00:51 AM 40.6558 -74.2731 12° North 401 461 29,300 1,020 Climbing Boston Center
Thu 10:01:51 AM 40.7875 -74.2411 10° North 429 494 30,400 850 Climbing Boston Center
Thu 10:02:51 AM 40.9111 -74.2061 12° North 434 499 31,000 300 Climbing Boston Center
Thu 10:03:51 AM 41.0344 -74.1736 11° North 440 506 31,000  Level Boston Center
Thu 10:04:51 AM 41.1581 -74.1383 12° North 451 519 31,000  Level Boston Center
Thu 10:05:51 AM 41.2647 -74.1025 14° North 451 519 31,000  Level Boston Center
Thu 10:06:51 AM 41.3883 -74.0697 11° North 444 511 31,000  Level Boston Center
Thu 10:07:51 AM 41.5242 -74.0317 12° North 450 518 31,000  Level Boston Center
Thu 10:08:51 AM 41.6225 -74.0064 11° North 450 518 31,000  Level Boston Center
Thu 10:09:51 AM 41.7669 -73.9625 13° North 450 518 31,000  Level Boston Center
Thu 10:10:51 AM 41.8883 -73.9292 12° North 444 511 31,000  Level Boston Center
Thu 10:11:51 AM 42.0117 -73.8931 12° North 444 511 31,000  Level Boston Center
Thu 10:12:51 AM 42.1372 -73.8594 11° North 450 518 31,000  Level Boston Center
Thu 10:13:51 AM 42.2606 -73.8231 12° North 450 518 31,000  Level Boston Center
Thu 10:14:51 AM 42.3861 -73.7894 11° North 450 518 31,000  Level Boston Center
Thu 10:15:51 AM 42.5075 -73.7525 13° North 450 518 31,000  Level Boston Center
Thu 10:16:51 AM 42.6058 -73.7208 13° North 433 498 31,000  Level Boston Center
Thu 10:17:51 AM 42.7228 -73.6892 11° North 426 490 31,000  Level Boston Center
Thu 10:19:03 AM 42.8378 -73.6547 12° North 421 484 31,000 -318 Level Boston Center
Thu 10:20:03 AM 42.9717 -73.6119 13° North 409 471 30,300 -1,300 Descending Boston Center
Thu 10:21:03 AM 43.0844 -73.5800 12° North 409 471 28,400 -1,900 Descending Boston Center
Thu 10:22:03 AM 43.2058 -73.5394 14° North 409 471 26,500 -1,682 Descending Boston Center
Thu 10:23:15 AM 43.3125 -73.5100 11° North 409 471 24,700 -1,364 Descending Boston Center
Thu 10:24:15 AM 43.4378 -73.4694 13° North 394 453 23,500 -1,650 Descending Boston Center
Thu 10:25:15 AM 43.5486 -73.4369 12° North 388 447 21,400 -2,150 Descending Boston Center
Thu 10:26:15 AM 43.6614 -73.4044 12° North 401 461 19,200 -2,250 Descending Boston Center
Thu 10:27:15 AM 43.7742 -73.3717 12° North 407 468 16,900 -2,150 Descending Boston Center
Thu 10:28:15 AM 43.8828 -73.3358 13° North 407 468 14,900 -2,050 Descending Boston Center
Thu 10:29:15 AM 43.9831 -73.3144 North 385 443 12,800 -2,000 Descending Boston Center
Thu 10:30:15 AM 44.0850 -73.3303 354° North 360 414 10,900 -1,350 Descending Boston Center
Thu 10:31:15 AM 44.1744 -73.3431 354° North 345 397 10,100 -1,100 Descending Boston Center
Thu 10:32:15 AM 44.2536 -73.3589 352° North 305 351 8,700 -1,800 Descending Boston Center
Thu 10:33:15 AM 44.3325 -73.3689 355° North 289 333 6,500 -2,350 Descending Boston Center
Thu 10:34:15 AM 44.4075 -73.3758 356° North 277 319 4,000 -1,750 Descending Boston Center
Thu 10:35:15 AM 44.4764 -73.3797 358° North 266 306 3,000 -1,000 Descending Boston Center
Thu 10:36:15 AM 44.5206 -73.3253 41° Northeast 215 247 2,000 -500 Descending Boston Center
Thu 10:37:15 AM 44.5333 -73.2672 73° East 168 193 2,000  Level Boston Center

Login

Don't have an account? Register now (free) for customized features, flight alerts, and more!